sensor_id;sensor_type;location;lat;lon;timestamp;temperature;humidity
2825;DHT22;1420;51.324;12.344;2022-10-16T00:02:07;15.60;99.90
2825;DHT22;1420;51.324;12.344;2022-10-16T00:04:35;15.50;1.00
2825;DHT22;1420;51.324;12.344;2022-10-16T00:07:03;15.40;1.00
2825;DHT22;1420;51.324;12.344;2022-10-16T00:09:31;15.40;99.90
2825;DHT22;1420;51.324;12.344;2022-10-16T00:11:59;15.40;99.90
2825;DHT22;1420;51.324;12.344;2022-10-16T00:14:26;15.40;99.90
2825;DHT22;1420;51.324;12.344;2022-10-16T00:16:53;15.40;99.90
2825;DHT22;1420;51.324;12.344;2022-10-16T00:19:21;15.30;99.90
2825;DHT22;1420;51.324;12.344;2022-10-16T00:21:48;15.40;99.90
2825;DHT22;1420;51.324;12.344;2022-10-16T00:24:15;15.40;99.90
2825;DHT22;1420;51.324;12.344;2022-10-16T00:26:42;15.30;99.90
2825;DHT22;1420;51.324;12.344;2022-10-16T00:29:10;15.40;99.90
2825;DHT22;1420;51.324;12.344;2022-10-16T00:31:37;15.40;99.90
2825;DHT22;1420;51.324;12.344;2022-10-16T00:34:05;15.40;99.90
2825;DHT22;1420;51.324;12.344;2022-10-16T00:36:33;15.50;99.90
2825;DHT22;1420;51.324;12.344;2022-10-16T00:39:02;15.50;99.90
2825;DHT22;1420;51.324;12.344;2022-10-16T00:41:30;15.50;99.90
2825;DHT22;1420;51.324;12.344;2022-10-16T00:43:57;15.50;99.90
2825;DHT22;1420;51.324;12.344;2022-10-16T00:46:27;15.50;99.90
2825;DHT22;1420;51.324;12.344;2022-10-16T00:48:57;15.50;99.90
2825;DHT22;1420;51.324;12.344;2022-10-16T00:51:25;15.50;99.90
2825;DHT22;1420;51.324;12.344;2022-10-16T00:53:52;15.50;99.90
2825;DHT22;1420;51.324;12.344;2022-10-16T00:56:19;15.50;99.90
2825;DHT22;1420;51.324;12.344;2022-10-16T00:58:48;15.50;99.90
2825;DHT22;1420;51.324;12.344;2022-10-16T01:01:15;15.60;99.90
2825;DHT22;1420;51.324;12.344;2022-10-16T01:03:43;15.50;99.90
2825;DHT22;1420;51.324;12.344;2022-10-16T01:06:19;15.50;99.90
2825;DHT22;1420;51.324;12.344;2022-10-16T01:11:22;15.40;99.90
2825;DHT22;1420;51.324;12.344;2022-10-16T01:13:51;15.30;99.90
2825;DHT22;1420;51.324;12.344;2022-10-16T01:16:38;15.30;99.90
2825;DHT22;1420;51.324;12.344;2022-10-16T01:21:46;15.40;99.90
2825;DHT22;1420;51.324;12.344;2022-10-16T01:24:22;15.40;99.90
2825;DHT22;1420;51.324;12.344;2022-10-16T01:27:12;15.40;99.90
2825;DHT22;1420;51.324;12.344;2022-10-16T01:29:49;15.20;99.90
2825;DHT22;1420;51.324;12.344;2022-10-16T01:32:21;15.20;99.90
2825;DHT22;1420;51.324;12.344;2022-10-16T01:34:51;15.20;99.90
2825;DHT22;1420;51.324;12.344;2022-10-16T01:37:20;15.20;99.90
2825;DHT22;1420;51.324;12.344;2022-10-16T01:39:45;15.30;99.90
2825;DHT22;1420;51.324;12.344;2022-10-16T01:42:13;15.30;99.90
2825;DHT22;1420;51.324;12.344;2022-10-16T01:44:38;15.30;99.90
2825;DHT22;1420;51.324;12.344;2022-10-16T01:47:06;15.20;99.90
2825;DHT22;1420;51.324;12.344;2022-10-16T01:49:33;15.10;99.90
2825;DHT22;1420;51.324;12.344;2022-10-16T01:52:02;15.10;99.90
2825;DHT22;1420;51.324;12.344;2022-10-16T01:54:29;15.10;99.90
2825;DHT22;1420;51.324;12.344;2022-10-16T01:56:57;15.00;99.90
2825;DHT22;1420;51.324;12.344;2022-10-16T01:59:25;15.00;99.90
2825;DHT22;1420;51.324;12.344;2022-10-16T02:01:54;14.90;99.90
2825;DHT22;1420;51.324;12.344;2022-10-16T02:04:26;14.70;99.90
2825;DHT22;1420;51.324;12.344;2022-10-16T02:06:51;14.70;99.90
2825;DHT22;1420;51.324;12.344;2022-10-16T02:09:18;14.60;99.90
2825;DHT22;1420;51.324;12.344;2022-10-16T02:11:45;14.60;99.90
2825;DHT22;1420;51.324;12.344;2022-10-16T02:14:13;14.60;99.90
2825;DHT22;1420;51.324;12.344;2022-10-16T02:16:42;14.50;99.90
2825;DHT22;1420;51.324;12.344;2022-10-16T02:19:08;14.60;99.90
2825;DHT22;1420;51.324;12.344;2022-10-16T02:21:43;14.60;99.90
2825;DHT22;1420;51.324;12.344;2022-10-16T02:24:32;14.70;99.90
2825;DHT22;1420;51.324;12.344;2022-10-16T02:27:12;14.70;99.90
2825;DHT22;1420;51.324;12.344;2022-10-16T02:29:39;14.70;99.90
2825;DHT22;1420;51.324;12.344;2022-10-16T02:32:07;14.80;99.90
2825;DHT22;1420;51.324;12.344;2022-10-16T02:34:34;14.70;99.90
2825;DHT22;1420;51.324;12.344;2022-10-16T02:37:01;14.70;99.90
2825;DHT22;1420;51.324;12.344;2022-10-16T02:39:29;14.70;99.90
2825;DHT22;1420;51.324;12.344;2022-10-16T02:41:56;14.60;1.00
2825;DHT22;1420;51.324;12.344;2022-10-16T02:44:23;14.70;1.00
2825;DHT22;1420;51.324;12.344;2022-10-16T02:46:50;14.60;99.90
2825;DHT22;1420;51.324;12.344;2022-10-16T02:49:18;14.60;99.90
2825;DHT22;1420;51.324;12.344;2022-10-16T02:51:46;14.60;99.90
2825;DHT22;1420;51.324;12.344;2022-10-16T02:54:14;14.50;99.90
2825;DHT22;1420;51.324;12.344;2022-10-16T02:56:41;14.50;99.90
2825;DHT22;1420;51.324;12.344;2022-10-16T02:59:09;14.50;99.90
2825;DHT22;1420;51.324;12.344;2022-10-16T03:01:36;14.50;78.60
2825;DHT22;1420;51.324;12.344;2022-10-16T03:04:03;14.40;99.90
2825;DHT22;1420;51.324;12.344;2022-10-16T03:06:30;14.30;99.90
2825;DHT22;1420;51.324;12.344;2022-10-16T03:08:57;14.20;99.90
2825;DHT22;1420;51.324;12.344;2022-10-16T03:11:25;14.20;99.90
2825;DHT22;1420;51.324;12.344;2022-10-16T03:13:52;14.10;99.90
2825;DHT22;1420;51.324;12.344;2022-10-16T03:16:20;14.10;99.90
2825;DHT22;1420;51.324;12.344;2022-10-16T03:18:48;14.10;99.90
2825;DHT22;1420;51.324;12.344;2022-10-16T03:21:16;14.10;99.90
2825;DHT22;1420;51.324;12.344;2022-10-16T03:23:44;14.20;99.90
2825;DHT22;1420;51.324;12.344;2022-10-16T03:26:11;14.10;99.90
2825;DHT22;1420;51.324;12.344;2022-10-16T03:28:38;14.20;99.90
2825;DHT22;1420;51.324;12.344;2022-10-16T03:31:05;14.10;99.90
2825;DHT22;1420;51.324;12.344;2022-10-16T03:33:33;14.00;99.90
2825;DHT22;1420;51.324;12.344;2022-10-16T03:36:00;14.00;99.90
2825;DHT22;1420;51.324;12.344;2022-10-16T03:38:28;14.00;99.90
2825;DHT22;1420;51.324;12.344;2022-10-16T03:40:56;14.00;99.90
2825;DHT22;1420;51.324;12.344;2022-10-16T03:43:23;14.00;99.90
2825;DHT22;1420;51.324;12.344;2022-10-16T03:45:50;14.00;99.90
2825;DHT22;1420;51.324;12.344;2022-10-16T03:48:18;14.00;99.90
2825;DHT22;1420;51.324;12.344;2022-10-16T03:50:45;14.00;99.90
2825;DHT22;1420;51.324;12.344;2022-10-16T03:53:12;14.00;99.90
2825;DHT22;1420;51.324;12.344;2022-10-16T03:55:41;14.00;99.90
2825;DHT22;1420;51.324;12.344;2022-10-16T03:58:08;14.00;99.90
2825;DHT22;1420;51.324;12.344;2022-10-16T04:00:35;14.00;99.90
2825;DHT22;1420;51.324;12.344;2022-10-16T04:03:03;14.00;99.90
2825;DHT22;1420;51.324;12.344;2022-10-16T04:05:31;14.00;99.90
2825;DHT22;1420;51.324;12.344;2022-10-16T04:07:58;14.00;99.90
2825;DHT22;1420;51.324;12.344;2022-10-16T04:10:25;14.10;99.90
2825;DHT22;1420;51.324;12.344;2022-10-16T04:12:53;14.10;99.90
2825;DHT22;1420;51.324;12.344;2022-10-16T04:15:22;14.00;99.90
2825;DHT22;1420;51.324;12.344;2022-10-16T04:17:49;14.00;99.90
2825;DHT22;1420;51.324;12.344;2022-10-16T04:20:16;14.10;99.90
2825;DHT22;1420;51.324;12.344;2022-10-16T04:22:44;14.10;99.90
2825;DHT22;1420;51.324;12.344;2022-10-16T04:25:11;14.10;99.90
2825;DHT22;1420;51.324;12.344;2022-10-16T04:27:38;14.20;99.90
2825;DHT22;1420;51.324;12.344;2022-10-16T04:30:06;14.10;99.90
2825;DHT22;1420;51.324;12.344;2022-10-16T04:32:33;14.10;99.90
2825;DHT22;1420;51.324;12.344;2022-10-16T04:35:01;14.20;99.90
2825;DHT22;1420;51.324;12.344;2022-10-16T04:37:28;14.10;99.90
2825;DHT22;1420;51.324;12.344;2022-10-16T04:39:55;14.10;99.90
2825;DHT22;1420;51.324;12.344;2022-10-16T04:42:23;14.30;99.90
2825;DHT22;1420;51.324;12.344;2022-10-16T04:44:51;14.20;99.90
2825;DHT22;1420;51.324;12.344;2022-10-16T04:47:19;14.30;99.90
2825;DHT22;1420;51.324;12.344;2022-10-16T04:49:46;14.30;99.90
2825;DHT22;1420;51.324;12.344;2022-10-16T04:52:13;14.20;99.90
2825;DHT22;1420;51.324;12.344;2022-10-16T04:54:41;14.30;99.90
2825;DHT22;1420;51.324;12.344;2022-10-16T04:57:08;14.20;99.90
2825;DHT22;1420;51.324;12.344;2022-10-16T04:59:35;14.20;99.90
2825;DHT22;1420;51.324;12.344;2022-10-16T05:02:03;14.20;99.90
2825;DHT22;1420;51.324;12.344;2022-10-16T05:04:30;14.10;99.90
2825;DHT22;1420;51.324;12.344;2022-10-16T05:06:57;14.40;99.90
2825;DHT22;1420;51.324;12.344;2022-10-16T05:09:25;14.30;99.90
2825;DHT22;1420;51.324;12.344;2022-10-16T05:11:52;14.30;99.90
2825;DHT22;1420;51.324;12.344;2022-10-16T05:14:19;14.20;99.90
2825;DHT22;1420;51.324;12.344;2022-10-16T05:16:47;14.20;99.90
2825;DHT22;1420;51.324;12.344;2022-10-16T05:19:14;14.20;99.90
2825;DHT22;1420;51.324;12.344;2022-10-16T05:21:41;14.10;99.90
2825;DHT22;1420;51.324;12.344;2022-10-16T05:24:09;14.10;99.90
2825;DHT22;1420;51.324;12.344;2022-10-16T05:26:36;14.00;99.90
2825;DHT22;1420;51.324;12.344;2022-10-16T05:29:03;13.90;99.90
2825;DHT22;1420;51.324;12.344;2022-10-16T05:31:31;14.00;99.90
2825;DHT22;1420;51.324;12.344;2022-10-16T05:33:59;14.00;99.90
2825;DHT22;1420;51.324;12.344;2022-10-16T05:36:26;14.00;99.90
2825;DHT22;1420;51.324;12.344;2022-10-16T05:38:53;14.00;99.90
2825;DHT22;1420;51.324;12.344;2022-10-16T05:41:20;14.10;99.90
2825;DHT22;1420;51.324;12.344;2022-10-16T05:43:47;14.10;99.90
2825;DHT22;1420;51.324;12.344;2022-10-16T05:46:15;14.20;99.90
2825;DHT22;1420;51.324;12.344;2022-10-16T05:48:42;14.20;99.90
2825;DHT22;1420;51.324;12.344;2022-10-16T05:51:10;14.40;99.90
2825;DHT22;1420;51.324;12.344;2022-10-16T05:53:37;14.30;99.90
2825;DHT22;1420;51.324;12.344;2022-10-16T05:56:05;14.50;99.90
2825;DHT22;1420;51.324;12.344;2022-10-16T05:58:34;14.40;99.90
2825;DHT22;1420;51.324;12.344;2022-10-16T06:01:00;14.60;99.90
2825;DHT22;1420;51.324;12.344;2022-10-16T06:03:27;14.70;99.90
2825;DHT22;1420;51.324;12.344;2022-10-16T06:05:54;14.80;99.90
2825;DHT22;1420;51.324;12.344;2022-10-16T06:08:22;14.90;99.90
2825;DHT22;1420;51.324;12.344;2022-10-16T06:13:23;14.90;99.90
2825;DHT22;1420;51.324;12.344;2022-10-16T06:15:50;15.00;99.90
2825;DHT22;1420;51.324;12.344;2022-10-16T06:18:18;15.10;99.90
2825;DHT22;1420;51.324;12.344;2022-10-16T06:20:46;15.20;99.90
2825;DHT22;1420;51.324;12.344;2022-10-16T06:23:14;15.20;99.90
2825;DHT22;1420;51.324;12.344;2022-10-16T06:25:41;15.30;99.90
2825;DHT22;1420;51.324;12.344;2022-10-16T06:28:08;15.40;99.90
2825;DHT22;1420;51.324;12.344;2022-10-16T06:30:36;15.60;99.90
2825;DHT22;1420;51.324;12.344;2022-10-16T06:33:04;15.60;99.90
2825;DHT22;1420;51.324;12.344;2022-10-16T06:35:32;16.10;99.90
2825;DHT22;1420;51.324;12.344;2022-10-16T06:38:00;16.40;99.90
2825;DHT22;1420;51.324;12.344;2022-10-16T06:40:28;16.40;99.10
2825;DHT22;1420;51.324;12.344;2022-10-16T06:42:56;16.30;1.00
2825;DHT22;1420;51.324;12.344;2022-10-16T06:45:23;16.30;4.60
2825;DHT22;1420;51.324;12.344;2022-10-16T06:47:50;16.30;1.00
2825;DHT22;1420;51.324;12.344;2022-10-16T06:50:18;16.20;99.90
2825;DHT22;1420;51.324;12.344;2022-10-16T06:52:45;16.00;99.90
2825;DHT22;1420;51.324;12.344;2022-10-16T06:55:12;16.00;99.90
2825;DHT22;1420;51.324;12.344;2022-10-16T06:57:39;16.00;99.90
2825;DHT22;1420;51.324;12.344;2022-10-16T07:00:07;16.10;99.90
2825;DHT22;1420;51.324;12.344;2022-10-16T07:02:34;16.10;99.90
2825;DHT22;1420;51.324;12.344;2022-10-16T07:05:01;16.00;99.90
2825;DHT22;1420;51.324;12.344;2022-10-16T07:07:29;16.10;99.90
2825;DHT22;1420;51.324;12.344;2022-10-16T07:09:57;16.10;99.90
2825;DHT22;1420;51.324;12.344;2022-10-16T07:12:24;16.10;99.90
2825;DHT22;1420;51.324;12.344;2022-10-16T07:14:52;16.10;99.90
2825;DHT22;1420;51.324;12.344;2022-10-16T07:17:19;16.20;99.90
2825;DHT22;1420;51.324;12.344;2022-10-16T07:19:46;16.20;99.90
2825;DHT22;1420;51.324;12.344;2022-10-16T07:22:13;16.30;99.90
2825;DHT22;1420;51.324;12.344;2022-10-16T07:24:40;16.30;99.90
2825;DHT22;1420;51.324;12.344;2022-10-16T07:27:08;16.20;99.90
2825;DHT22;1420;51.324;12.344;2022-10-16T07:29:35;16.20;99.90
2825;DHT22;1420;51.324;12.344;2022-10-16T07:32:02;16.50;99.90
2825;DHT22;1420;51.324;12.344;2022-10-16T07:34:30;16.80;99.90
2825;DHT22;1420;51.324;12.344;2022-10-16T07:36:58;16.70;99.90
2825;DHT22;1420;51.324;12.344;2022-10-16T07:39:26;16.90;99.90
2825;DHT22;1420;51.324;12.344;2022-10-16T07:41:54;16.90;99.90
2825;DHT22;1420;51.324;12.344;2022-10-16T07:44:22;16.80;99.90
2825;DHT22;1420;51.324;12.344;2022-10-16T07:46:50;17.10;99.90
2825;DHT22;1420;51.324;12.344;2022-10-16T07:49:18;17.60;99.90
2825;DHT22;1420;51.324;12.344;2022-10-16T07:51:46;17.80;99.90
2825;DHT22;1420;51.324;12.344;2022-10-16T07:54:14;17.90;99.90
2825;DHT22;1420;51.324;12.344;2022-10-16T07:56:42;18.10;99.90
2825;DHT22;1420;51.324;12.344;2022-10-16T07:59:10;18.40;99.90
2825;DHT22;1420;51.324;12.344;2022-10-16T08:01:38;18.60;99.90
2825;DHT22;1420;51.324;12.344;2022-10-16T08:04:06;19.20;99.90
2825;DHT22;1420;51.324;12.344;2022-10-16T08:06:34;19.10;99.90
2825;DHT22;1420;51.324;12.344;2022-10-16T08:09:00;19.70;99.90
2825;DHT22;1420;51.324;12.344;2022-10-16T08:11:27;20.00;99.90
2825;DHT22;1420;51.324;12.344;2022-10-16T08:13:54;20.60;99.90
2825;DHT22;1420;51.324;12.344;2022-10-16T08:16:22;21.10;99.90
2825;DHT22;1420;51.324;12.344;2022-10-16T08:18:49;21.40;99.90
2825;DHT22;1420;51.324;12.344;2022-10-16T08:21:17;21.60;99.90
2825;DHT22;1420;51.324;12.344;2022-10-16T08:23:43;21.60;99.90
2825;DHT22;1420;51.324;12.344;2022-10-16T08:26:11;21.30;99.90
2825;DHT22;1420;51.324;12.344;2022-10-16T08:28:39;19.70;99.90
2825;DHT22;1420;51.324;12.344;2022-10-16T08:31:13;19.50;99.90
2825;DHT22;1420;51.324;12.344;2022-10-16T08:33:40;19.30;99.90
2825;DHT22;1420;51.324;12.344;2022-10-16T08:36:08;19.40;99.90
2825;DHT22;1420;51.324;12.344;2022-10-16T08:38:36;19.30;99.90
2825;DHT22;1420;51.324;12.344;2022-10-16T08:43:55;19.50;99.90
2825;DHT22;1420;51.324;12.344;2022-10-16T08:46:27;19.60;99.90
2825;DHT22;1420;51.324;12.344;2022-10-16T08:48:52;19.70;99.90
2825;DHT22;1420;51.324;12.344;2022-10-16T08:51:20;19.50;99.90
2825;DHT22;1420;51.324;12.344;2022-10-16T08:53:49;19.50;99.90
2825;DHT22;1420;51.324;12.344;2022-10-16T08:56:14;20.80;99.90
2825;DHT22;1420;51.324;12.344;2022-10-16T08:58:41;20.70;99.90
2825;DHT22;1420;51.324;12.344;2022-10-16T09:01:12;20.70;99.90
2825;DHT22;1420;51.324;12.344;2022-10-16T09:04:01;20.70;99.90
2825;DHT22;1420;51.324;12.344;2022-10-16T09:06:29;20.70;99.90
2825;DHT22;1420;51.324;12.344;2022-10-16T09:08:59;20.50;99.90
2825;DHT22;1420;51.324;12.344;2022-10-16T09:12:46;20.70;99.90
2825;DHT22;1420;51.324;12.344;2022-10-16T09:14:33;20.70;99.90
2825;DHT22;1420;51.324;12.344;2022-10-16T09:16:59;21.40;99.90
2825;DHT22;1420;51.324;12.344;2022-10-16T09:19:32;21.70;99.90
2825;DHT22;1420;51.324;12.344;2022-10-16T09:21:59;21.60;99.90
2825;DHT22;1420;51.324;12.344;2022-10-16T09:24:25;21.50;99.90
2825;DHT22;1420;51.324;12.344;2022-10-16T09:26:52;21.20;99.90
2825;DHT22;1420;51.324;12.344;2022-10-16T09:29:21;21.10;99.90
2825;DHT22;1420;51.324;12.344;2022-10-16T09:31:48;21.50;99.90
2825;DHT22;1420;51.324;12.344;2022-10-16T09:34:34;21.50;99.90
2825;DHT22;1420;51.324;12.344;2022-10-16T09:37:03;21.40;99.90
2825;DHT22;1420;51.324;12.344;2022-10-16T09:39:28;21.10;99.90
2825;DHT22;1420;51.324;12.344;2022-10-16T09:41:55;21.20;99.90
2825;DHT22;1420;51.324;12.344;2022-10-16T09:44:28;21.40;99.90
2825;DHT22;1420;51.324;12.344;2022-10-16T09:47:01;22.10;99.90
2825;DHT22;1420;51.324;12.344;2022-10-16T09:49:28;22.10;99.90
2825;DHT22;1420;51.324;12.344;2022-10-16T09:52:04;21.30;99.90
2825;DHT22;1420;51.324;12.344;2022-10-16T09:54:31;21.20;99.90
2825;DHT22;1420;51.324;12.344;2022-10-16T09:57:05;21.50;99.90
2825;DHT22;1420;51.324;12.344;2022-10-16T09:59:32;21.70;99.90
2825;DHT22;1420;51.324;12.344;2022-10-16T10:02:03;21.20;99.90
2825;DHT22;1420;51.324;12.344;2022-10-16T10:04:37;21.00;99.90
2825;DHT22;1420;51.324;12.344;2022-10-16T10:06:56;21.00;99.90
2825;DHT22;1420;51.324;12.344;2022-10-16T10:09:24;21.40;99.90
2825;DHT22;1420;51.324;12.344;2022-10-16T10:11:54;21.40;99.90
2825;DHT22;1420;51.324;12.344;2022-10-16T10:14:22;22.00;99.90
2825;DHT22;1420;51.324;12.344;2022-10-16T10:16:48;21.70;99.90
2825;DHT22;1420;51.324;12.344;2022-10-16T10:19:17;21.50;99.90
2825;DHT22;1420;51.324;12.344;2022-10-16T10:21:44;21.40;99.90
2825;DHT22;1420;51.324;12.344;2022-10-16T10:24:14;21.10;99.90
2825;DHT22;1420;51.324;12.344;2022-10-16T10:26:44;21.00;99.90
2825;DHT22;1420;51.324;12.344;2022-10-16T10:29:33;20.70;99.90
2825;DHT22;1420;51.324;12.344;2022-10-16T10:32:06;20.60;99.90
2825;DHT22;1420;51.324;12.344;2022-10-16T10:34:48;21.00;99.90
2825;DHT22;1420;51.324;12.344;2022-10-16T10:37:35;21.10;99.90
2825;DHT22;1420;51.324;12.344;2022-10-16T10:40:02;21.10;99.90
2825;DHT22;1420;51.324;12.344;2022-10-16T10:42:31;20.90;99.90
2825;DHT22;1420;51.324;12.344;2022-10-16T10:45:16;20.70;99.90
2825;DHT22;1420;51.324;12.344;2022-10-16T10:48:11;20.70;99.90
2825;DHT22;1420;51.324;12.344;2022-10-16T10:50:36;20.60;99.90
2825;DHT22;1420;51.324;12.344;2022-10-16T10:53:20;20.50;99.90
2825;DHT22;1420;51.324;12.344;2022-10-16T10:58:48;20.50;99.90
2825;DHT22;1420;51.324;12.344;2022-10-16T11:01:13;20.50;99.90
2825;DHT22;1420;51.324;12.344;2022-10-16T11:06:33;20.50;99.90
2825;DHT22;1420;51.324;12.344;2022-10-16T11:09:06;20.50;99.90
2825;DHT22;1420;51.324;12.344;2022-10-16T11:11:49;20.60;99.90
2825;DHT22;1420;51.324;12.344;2022-10-16T11:14:18;20.80;99.90
2825;DHT22;1420;51.324;12.344;2022-10-16T11:16:56;20.80;99.90
2825;DHT22;1420;51.324;12.344;2022-10-16T11:22:21;20.70;99.90
2825;DHT22;1420;51.324;12.344;2022-10-16T11:24:50;20.90;99.90
2825;DHT22;1420;51.324;12.344;2022-10-16T11:27:17;20.90;99.90
2825;DHT22;1420;51.324;12.344;2022-10-16T11:29:49;20.90;99.90
2825;DHT22;1420;51.324;12.344;2022-10-16T11:32:26;20.90;99.90
2825;DHT22;1420;51.324;12.344;2022-10-16T11:34:55;20.90;99.90
2825;DHT22;1420;51.324;12.344;2022-10-16T11:37:23;21.10;99.90
2825;DHT22;1420;51.324;12.344;2022-10-16T11:39:48;21.10;99.90
2825;DHT22;1420;51.324;12.344;2022-10-16T11:42:18;21.20;99.90
2825;DHT22;1420;51.324;12.344;2022-10-16T11:47:31;20.90;99.90
2825;DHT22;1420;51.324;12.344;2022-10-16T11:49:59;20.90;99.90
2825;DHT22;1420;51.324;12.344;2022-10-16T11:52:28;21.00;99.90
2825;DHT22;1420;51.324;12.344;2022-10-16T11:54:59;21.00;99.90
2825;DHT22;1420;51.324;12.344;2022-10-16T11:57:27;21.00;99.90
2825;DHT22;1420;51.324;12.344;2022-10-16T11:59:57;21.00;99.90
2825;DHT22;1420;51.324;12.344;2022-10-16T12:02:29;20.90;99.90
2825;DHT22;1420;51.324;12.344;2022-10-16T12:05:03;21.10;99.90
2825;DHT22;1420;51.324;12.344;2022-10-16T12:07:27;21.20;99.90
2825;DHT22;1420;51.324;12.344;2022-10-16T12:09:53;21.10;99.90
2825;DHT22;1420;51.324;12.344;2022-10-16T12:12:27;21.20;99.90
2825;DHT22;1420;51.324;12.344;2022-10-16T12:15:00;21.10;99.90
2825;DHT22;1420;51.324;12.344;2022-10-16T12:17:37;20.90;99.90
2825;DHT22;1420;51.324;12.344;2022-10-16T12:20:20;20.80;99.90
2825;DHT22;1420;51.324;12.344;2022-10-16T12:22:56;20.70;99.90
2825;DHT22;1420;51.324;12.344;2022-10-16T12:25:33;20.60;99.90
2825;DHT22;1420;51.324;12.344;2022-10-16T12:28:15;20.40;99.90
2825;DHT22;1420;51.324;12.344;2022-10-16T12:30:34;20.30;99.90
2825;DHT22;1420;51.324;12.344;2022-10-16T12:33:02;20.30;99.90
2825;DHT22;1420;51.324;12.344;2022-10-16T12:35:30;20.30;99.90
2825;DHT22;1420;51.324;12.344;2022-10-16T12:40:29;20.20;99.90
2825;DHT22;1420;51.324;12.344;2022-10-16T12:42:56;20.30;99.90
2825;DHT22;1420;51.324;12.344;2022-10-16T12:45:28;20.40;99.90
2825;DHT22;1420;51.324;12.344;2022-10-16T12:47:55;20.30;99.90
2825;DHT22;1420;51.324;12.344;2022-10-16T12:50:25;20.30;99.90
2825;DHT22;1420;51.324;12.344;2022-10-16T12:52:50;20.30;99.90
2825;DHT22;1420;51.324;12.344;2022-10-16T12:55:18;20.30;99.90
2825;DHT22;1420;51.324;12.344;2022-10-16T12:57:57;20.20;99.90
2825;DHT22;1420;51.324;12.344;2022-10-16T13:00:22;20.30;99.90
2825;DHT22;1420;51.324;12.344;2022-10-16T13:03:01;20.30;99.90
2825;DHT22;1420;51.324;12.344;2022-10-16T13:08:18;20.20;99.90
2825;DHT22;1420;51.324;12.344;2022-10-16T13:10:46;20.40;99.90
2825;DHT22;1420;51.324;12.344;2022-10-16T13:13:17;20.20;99.90
2825;DHT22;1420;51.324;12.344;2022-10-16T13:15:52;20.20;99.90
2825;DHT22;1420;51.324;12.344;2022-10-16T13:18:39;20.20;99.90
2825;DHT22;1420;51.324;12.344;2022-10-16T13:21:28;20.10;99.90
2825;DHT22;1420;51.324;12.344;2022-10-16T13:24:02;20.10;99.90
2825;DHT22;1420;51.324;12.344;2022-10-16T13:26:56;20.10;99.90
2825;DHT22;1420;51.324;12.344;2022-10-16T13:29:20;19.90;99.90
2825;DHT22;1420;51.324;12.344;2022-10-16T13:31:47;19.90;99.90
2825;DHT22;1420;51.324;12.344;2022-10-16T13:34:17;19.80;99.90
2825;DHT22;1420;51.324;12.344;2022-10-16T13:36:46;19.80;99.90
2825;DHT22;1420;51.324;12.344;2022-10-16T13:39:26;19.60;99.90
2825;DHT22;1420;51.324;12.344;2022-10-16T13:42:05;19.80;99.90
2825;DHT22;1420;51.324;12.344;2022-10-16T13:44:35;19.90;99.90
2825;DHT22;1420;51.324;12.344;2022-10-16T13:46:59;19.80;99.90
2825;DHT22;1420;51.324;12.344;2022-10-16T13:49:26;19.70;99.90
2825;DHT22;1420;51.324;12.344;2022-10-16T13:51:55;19.60;99.90
2825;DHT22;1420;51.324;12.344;2022-10-16T13:54:21;19.60;99.90
2825;DHT22;1420;51.324;12.344;2022-10-16T13:56:48;19.60;99.90
2825;DHT22;1420;51.324;12.344;2022-10-16T13:59:24;19.50;99.90
2825;DHT22;1420;51.324;12.344;2022-10-16T14:01:50;19.50;99.90
2825;DHT22;1420;51.324;12.344;2022-10-16T14:04:17;19.40;99.90
2825;DHT22;1420;51.324;12.344;2022-10-16T14:06:46;19.40;99.90
2825;DHT22;1420;51.324;12.344;2022-10-16T14:09:24;19.40;99.90
2825;DHT22;1420;51.324;12.344;2022-10-16T14:11:51;19.30;99.90
2825;DHT22;1420;51.324;12.344;2022-10-16T14:14:19;19.20;99.90
2825;DHT22;1420;51.324;12.344;2022-10-16T14:16:46;19.20;99.90
2825;DHT22;1420;51.324;12.344;2022-10-16T14:19:28;19.20;99.90
2825;DHT22;1420;51.324;12.344;2022-10-16T14:21:56;19.10;99.90
2825;DHT22;1420;51.324;12.344;2022-10-16T14:24:27;19.30;99.90
2825;DHT22;1420;51.324;12.344;2022-10-16T14:26:54;19.30;99.90
2825;DHT22;1420;51.324;12.344;2022-10-16T14:29:22;19.30;99.90
2825;DHT22;1420;51.324;12.344;2022-10-16T14:31:56;19.40;99.90
2825;DHT22;1420;51.324;12.344;2022-10-16T14:34:29;19.50;99.90
2825;DHT22;1420;51.324;12.344;2022-10-16T14:36:54;19.40;99.90
2825;DHT22;1420;51.324;12.344;2022-10-16T14:39:22;19.50;99.90
2825;DHT22;1420;51.324;12.344;2022-10-16T14:41:49;19.60;99.90
2825;DHT22;1420;51.324;12.344;2022-10-16T14:44:17;19.50;99.90
2825;DHT22;1420;51.324;12.344;2022-10-16T14:46:44;19.40;99.90
2825;DHT22;1420;51.324;12.344;2022-10-16T14:49:17;19.50;99.90
2825;DHT22;1420;51.324;12.344;2022-10-16T14:51:43;19.40;99.90
2825;DHT22;1420;51.324;12.344;2022-10-16T14:54:12;19.60;99.90
2825;DHT22;1420;51.324;12.344;2022-10-16T14:56:46;19.50;99.90
2825;DHT22;1420;51.324;12.344;2022-10-16T14:59:33;19.40;99.90
2825;DHT22;1420;51.324;12.344;2022-10-16T15:01:58;19.40;99.90
2825;DHT22;1420;51.324;12.344;2022-10-16T15:04:25;19.30;99.90
2825;DHT22;1420;51.324;12.344;2022-10-16T15:06:53;19.40;99.90
2825;DHT22;1420;51.324;12.344;2022-10-16T15:09:21;19.50;99.90
2825;DHT22;1420;51.324;12.344;2022-10-16T15:11:49;19.60;99.90
2825;DHT22;1420;51.324;12.344;2022-10-16T15:14:17;19.40;99.90
2825;DHT22;1420;51.324;12.344;2022-10-16T15:16:45;19.40;99.90
2825;DHT22;1420;51.324;12.344;2022-10-16T15:19:13;19.40;99.90
2825;DHT22;1420;51.324;12.344;2022-10-16T15:21:41;19.20;99.90
2825;DHT22;1420;51.324;12.344;2022-10-16T15:24:09;19.10;99.90
2825;DHT22;1420;51.324;12.344;2022-10-16T15:26:36;19.00;99.90
2825;DHT22;1420;51.324;12.344;2022-10-16T15:29:04;19.00;99.90
2825;DHT22;1420;51.324;12.344;2022-10-16T15:31:32;19.00;99.90
2825;DHT22;1420;51.324;12.344;2022-10-16T15:33:59;19.10;99.90
2825;DHT22;1420;51.324;12.344;2022-10-16T15:36:27;18.90;99.90
2825;DHT22;1420;51.324;12.344;2022-10-16T15:38:54;18.80;99.90
2825;DHT22;1420;51.324;12.344;2022-10-16T15:41:21;18.90;99.90
2825;DHT22;1420;51.324;12.344;2022-10-16T15:43:49;19.00;99.90
2825;DHT22;1420;51.324;12.344;2022-10-16T15:46:20;19.00;99.90
2825;DHT22;1420;51.324;12.344;2022-10-16T15:48:48;18.90;99.90
2825;DHT22;1420;51.324;12.344;2022-10-16T15:51:15;18.90;99.90
2825;DHT22;1420;51.324;12.344;2022-10-16T15:53:42;19.00;99.90
2825;DHT22;1420;51.324;12.344;2022-10-16T15:56:10;19.10;99.90
2825;DHT22;1420;51.324;12.344;2022-10-16T15:58:37;19.00;99.90
2825;DHT22;1420;51.324;12.344;2022-10-16T16:01:04;19.00;99.90
2825;DHT22;1420;51.324;12.344;2022-10-16T16:03:32;18.80;99.90
2825;DHT22;1420;51.324;12.344;2022-10-16T16:06:03;18.80;99.90
2825;DHT22;1420;51.324;12.344;2022-10-16T16:08:26;18.80;99.90
2825;DHT22;1420;51.324;12.344;2022-10-16T16:11:01;18.70;99.90
2825;DHT22;1420;51.324;12.344;2022-10-16T16:13:27;18.60;99.90
2825;DHT22;1420;51.324;12.344;2022-10-16T16:15:55;18.60;99.90
2825;DHT22;1420;51.324;12.344;2022-10-16T16:18:23;18.60;99.90
2825;DHT22;1420;51.324;12.344;2022-10-16T16:20:50;18.50;99.90
2825;DHT22;1420;51.324;12.344;2022-10-16T16:23:18;18.50;99.90
2825;DHT22;1420;51.324;12.344;2022-10-16T16:25:53;18.40;99.90
2825;DHT22;1420;51.324;12.344;2022-10-16T16:28:12;18.50;99.90